Flight Track Log - Related Links

Times and Time Zones

All times are in EDT time to prevent confusion due to time zone crossing. See the SWA1035 flight status page for this flight to view local times or setup timezone preferences in your user account.

Time Position Orientation Groundspeed Altitude Reporting Facility
EDT Latitude Longitude Course Direction KTS MPH feet Rate Location/Type
Thu 02:27:38 PM 39.3167 -94.7167 262° West 135 155 1,700  Level Kansas City TRACON
Thu 02:28:16 PM 39.3372 -94.7258 341° North 134 154 3,300 2,520 Climbing Kansas City Center
Thu 02:29:18 PM 39.3558 -94.7914 290° West 254 292 5,900 3,532 Climbing Kansas City Center
Thu 02:30:20 PM 39.3433 -94.8953 261° West 259 298 10,600 3,532 Climbing Kansas City Center
Thu 02:31:22 PM 39.3244 -94.9967 256° West 304 350 13,200 2,177 Climbing Kansas City Center
Thu 02:32:24 PM 39.3017 -95.1214 257° West 320 368 15,100 1,935 Climbing Kansas City Center
Thu 02:33:00 PM 39.1872 -95.5317 262° West  Level FlightAware Approximate
Thu 02:33:26 PM 39.2792 -95.2467 257° West 337 388 17,200  Level Kansas City Center
Thu 02:34:28 PM 39.2553 -95.3694 256° West 351 404 19,500 2,081 Climbing Kansas City Center
Thu 02:35:30 PM 39.2342 -95.4856 257° West 367 422 21,500 2,049 Climbing Kansas City Center
Thu 02:36:31 PM 39.2056 -95.6378 256° West 391 450 23,700 2,049 Climbing Kansas City Center
Thu 02:37:33 PM 39.1767 -95.7728 255° West 409 471 25,700 2,177 Climbing Kansas City Center
Thu 02:38:35 PM 39.1394 -95.9314 253° West 414 476 28,200 2,081 Climbing Kansas City Center
Thu 02:39:37 PM 39.1081 -96.0678 254° West 414 476 30,000 1,500 Climbing Kansas City Center
Thu 02:40:39 PM 39.0706 -96.2269 253° West 417 480 31,300 1,694 Climbing Kansas City Center
Thu 02:41:41 PM 39.0389 -96.3631 253° West 413 475 33,500 2,226 Climbing Kansas City Center
Thu 02:42:43 PM 39.0044 -96.5128 254° West 394 453 35,900 1,220 Climbing Kansas City Center
Thu 02:43:44 PM 38.9744 -96.6211 250° West 387 445 36,000 341 Climbing Kansas City Center
Thu 02:44:46 PM 38.9369 -96.7781 253° West 385 443 36,600 774 Climbing Kansas City Center
Thu 02:45:48 PM 38.9078 -96.9175 255° West 399 459 37,600 677 Climbing Kansas City Center
Thu 02:46:50 PM 38.8758 -97.0525 253° West 399 459 38,000 194 Climbing Kansas City Center
Thu 02:47:52 PM 38.8428 -97.1881 253° West 399 459 38,000  Level Kansas City Center
Thu 02:48:54 PM 38.8089 -97.3242 252° West 401 461 38,000  Level Kansas City Center
Thu 02:49:55 PM 38.7764 -97.4597 253° West 401 461 38,000  Level Kansas City Center
Thu 02:50:57 PM 38.7378 -97.6108 252° West 397 457 38,000  Level Kansas City Center
Thu 02:51:59 PM 38.6989 -97.7642 252° West 403 464 38,000  Level Kansas City Center
Thu 02:53:01 PM 38.6675 -97.8964 253° West 410 472 38,000  Level Kansas City Center
Thu 02:54:03 PM 38.6336 -98.0342 253° West 409 471 38,000  Level Kansas City Center
Thu 02:55:04 PM 38.5972 -98.1739 252° West 415 478 38,000  Level Kansas City Center
Thu 02:56:06 PM 38.5636 -98.3128 253° West 412 474 38,000  Level Kansas City Center
Thu 02:57:08 PM 38.5217 -98.4750 252° West 405 466 38,000  Level Kansas City Center
Thu 02:58:10 PM 38.4875 -98.6111 252° West 404 465 38,000  Level Kansas City Center
Thu 02:59:12 PM 38.4519 -98.7461 251° West 403 464 38,000  Level Kansas City Center
Thu 03:00:13 PM 38.4161 -98.8828 252° West 407 468 38,000  Level Kansas City Center
Thu 03:01:15 PM 38.3817 -99.0186 252° West 406 467 38,000  Level Kansas City Center
Thu 03:02:17 PM 38.3456 -99.1544 251° West 406 467 38,000  Level Kansas City Center
Thu 03:03:19 PM 38.3019 -99.3156 251° West 403 464 38,000  Level Kansas City Center
Thu 03:04:21 PM 38.2675 -99.4508 252° West 403 464 38,000  Level Kansas City Center
Thu 03:05:22 PM 38.2272 -99.5953 250° West 405 466 38,000  Level Kansas City Center
Thu 03:06:24 PM 38.1928 -99.7275 252° West 410 472 38,000  Level Kansas City Center
Thu 03:07:26 PM 38.1514 -99.8797 251° West 409 471 38,000  Level Kansas City Center
Thu 03:08:28 PM 38.1158 -100.0100 251° West 409 471 38,000  Level Kansas City Center
Thu 03:09:30 PM 38.0750 -100.1606 251° West 405 466 38,000  Level Kansas City Center
Thu 03:10:32 PM 38.0406 -100.2889 251° West 404 465 38,000  Level Kansas City Center
Thu 03:11:34 PM 38.0050 -100.4169 251° West 403 464 38,000  Level Kansas City Center
Thu 03:12:36 PM 37.9633 -100.5639 250° West 399 459 38,000  Level Kansas City Center
Thu 03:13:37 PM 37.9289 -100.6894 251° West 397 457 38,000  Level Kansas City Center
Thu 03:14:39 PM 37.8747 -100.8278 244° Southwest 396 456 38,000  Level Kansas City Center
Thu 03:15:41 PM 37.8244 -100.9439 241° Southwest 399 459 38,000  Level Kansas City Center
Thu 03:16:43 PM 37.7653 -101.0783 241° Southwest 399 459 38,000  Level Kansas City Center
Thu 03:17:46 PM 37.7056 -101.2150 241° Southwest 400 460 38,000  Level Kansas City Center
Thu 03:18:47 PM 37.6539 -101.3308 241° Southwest 400 460 38,000  Level Kansas City Center
Thu 03:19:49 PM 37.6022 -101.4492 241° Southwest 402 463 38,000  Level Kansas City Center
Thu 03:20:51 PM 37.5408 -101.5869 241° Southwest 404 465 38,000  Level Kansas City Center
Thu 03:21:53 PM 37.4894 -101.7031 241° Southwest 399 459 38,000  Level Kansas City Center
Thu 03:22:55 PM 37.4281 -101.8414 241° Southwest 404 465 38,000  Level Kansas City Center
Thu 03:23:57 PM 37.3758 -101.9581 241° Southwest 403 464 38,000  Level Kansas City Center
Thu 03:24:59 PM 37.3139 -102.0950 240° Southwest 403 464 38,000  Level Kansas City Center
Thu 03:26:01 PM 37.2600 -102.2144 240° Southwest 408 470 38,000  Level Kansas City Center
Thu 03:27:13 PM 37.1867 -102.3814 241° Southwest 415 478 38,000  Level Albuquerque Center
Thu 03:28:14 PM 37.1325 -102.4967 240° Southwest 418 481 38,000  Level Albuquerque Center
Thu 03:29:16 PM 37.0761 -102.6250 241° Southwest 418 481 38,000  Level Albuquerque Center
Thu 03:30:18 PM 37.0103 -102.7656 240° Southwest 418 481 38,000  Level Albuquerque Center
Thu 03:31:20 PM 36.9550 -102.8872 240° Southwest 419 482 38,000  Level Albuquerque Center
Thu 03:32:22 PM 36.8894 -103.0269 240° Southwest 418 481 38,000  Level Albuquerque Center
Thu 03:33:23 PM 36.8333 -103.1489 240° Southwest 419 482 38,000  Level Albuquerque Center
Thu 03:34:25 PM 36.7675 -103.2897 240° Southwest 418 481 38,000  Level Albuquerque Center
Thu 03:35:27 PM 36.7114 -103.4106 240° Southwest 420 483 38,000  Level Albuquerque Center
Thu 03:36:29 PM 36.6475 -103.5444 239° Southwest 420 483 38,000  Level Albuquerque Center
Thu 03:37:31 PM 36.5886 -103.6708 240° Southwest 419 482 38,000  Level Albuquerque Center
Thu 03:38:33 PM 36.5306 -103.7928 239° Southwest 412 474 38,000  Level Albuquerque Center
Thu 03:39:34 PM 36.4722 -103.9142 239° Southwest 408 470 38,000  Level Albuquerque Center
Thu 03:40:36 PM 36.4144 -104.0369 240° Southwest 409 471 38,000  Level Albuquerque Center
Thu 03:41:38 PM 36.3553 -104.1569 239° Southwest 407 468 38,000  Level Albuquerque Center
Thu 03:42:40 PM 36.2969 -104.2769 239° Southwest 404 465 38,000  Level Albuquerque Center
Thu 03:43:42 PM 36.2297 -104.4169 239° Southwest 403 464 38,000  Level Albuquerque Center
Thu 03:44:43 PM 36.1719 -104.5369 239° Southwest 404 465 38,000  Level Albuquerque Center
Thu 03:45:45 PM 36.1133 -104.6569 239° Southwest 405 466 38,000 -194 Level Albuquerque Center
Thu 03:46:47 PM 36.0547 -104.7789 239° Southwest 409 471 37,600 -629 Descending Albuquerque Center
Thu 03:47:49 PM 35.9936 -104.9011 238° Southwest 413 475 36,700 -968 Descending Albuquerque Center
Thu 03:48:51 PM 35.9350 -105.0219 239° Southwest 410 472 35,600 -968 Descending Albuquerque Center
Thu 03:49:53 PM 35.8775 -105.1369 238° Southwest 396 456 34,700 -780 Descending Albuquerque Center
Thu 03:50:54 PM 35.8083 -105.2756 238° Southwest 401 461 34,000 -341 Descending Albuquerque Center
Thu 03:51:56 PM 35.7517 -105.3911 239° Southwest 397 457 34,000  Level Albuquerque Center
Thu 03:52:58 PM 35.6992 -105.5108 242° Southwest 398 458 34,000 -823 Level Albuquerque Center
Thu 03:54:00 PM 35.6892 -105.6214 264° West 377 434 32,300 -1,984 Descending Albuquerque Center
Thu 03:55:02 PM 35.6736 -105.7686 263° West 365 420 29,900 -2,081 Descending Albuquerque Center
Thu 03:56:04 PM 35.6636 -105.8842 264° West 348 400 28,000 -1,839 Descending Albuquerque Center
Thu 03:57:06 PM 35.6531 -105.9956 263° West 333 383 26,100 -1,951 Descending Albuquerque Center
Thu 03:58:07 PM 35.6414 -106.1117 263° West 339 390 24,000 -1,951 Descending Albuquerque Center
Thu 03:59:09 PM 35.6308 -106.2272 264° West 344 396 22,100 -2,067 Descending Albuquerque Center
Thu 04:00:06 PM 35.6161 -106.3517 262° West 340 391 19,900 -2,138 Descending Albuquerque Center
Thu 04:00:36 PM 35.6106 -106.4053 263° West 337 388 19,000 -1,612 Descending Albuquerque Center
Thu 04:01:13 PM 35.6067 -106.4564 265° West 339 390 18,100 -1,672 Descending Albuquerque Center
Thu 04:01:37 PM 35.5969 -106.5239 260° West 330 380 17,300 -2,129 Descending Albuquerque Center
Thu 04:02:15 PM 35.5747 -106.5861 246° West 345 397 15,900 -2,300 Descending Albuquerque Center
Thu 04:02:37 PM 35.5350 -106.6081 204° Southwest 377 434 15,000 -1,452 Descending Albuquerque Center
Thu 04:03:17 PM 35.4800 -106.6392 205° Southwest 372 428 14,400 -1,343 Descending Albuquerque Center
Thu 04:03:44 PM 35.4356 -106.6625 203° Southwest 359 413 13,500 -1,645 Descending Albuquerque Center
Thu 04:04:19 PM 35.3911 -106.6869 204° Southwest 359 413 12,700 -1,527 Descending Albuquerque Center
Thu 04:04:39 PM 35.3575 -106.7033 202° Southwest 323 372 12,100 -1,452 Descending Albuquerque Center
Thu 04:05:21 PM 35.3131 -106.7281 204° Southwest 320 368 11,200 -1,455 Descending Albuquerque Center
Thu 04:05:45 PM 35.2775 -106.7475 204° Southwest 291 335 10,500 -1,452 Descending Albuquerque Center
Thu 04:06:23 PM 35.2403 -106.7700 206° Southwest 299 344 9,700 -1,180 Descending Albuquerque Center
Thu 04:06:46 PM 35.1981 -106.7939 205° Southwest 285 328 9,300 -677 Descending Albuquerque Center
Thu 04:07:25 PM 35.1700 -106.8136 210° Southwest 291 335 9,000 -300 Descending Albuquerque Center
Thu 04:07:46 PM 35.1336 -106.8156 183° South 236 272 9,000 -393 Level Albuquerque Center
Thu 04:08:26 PM 35.1117 -106.7994 149° Southeast 251 289 8,600 -885 Descending Albuquerque Center
Thu 04:08:47 PM 35.0903 -106.7747 137° Southeast 191 220 8,100 -1,161 Descending Albuquerque Center
Thu 04:09:28 PM 35.0650 -106.7406 132° Southeast 211 243 7,400 -984 Descending Albuquerque Center
Thu 04:09:48 PM 35.0569 -106.7289 130° Southeast 180 207 7,100 -871 Descending Albuquerque Center
Thu 04:10:30 PM 35.0453 -106.6922 111° Southeast 179 206 6,500 -800 Descending Albuquerque Center
Thu 04:10:48 PM 35.0436 -106.6778 98° East 146 168 6,300 -774 Descending Albuquerque Center
Thu 04:11:32 PM 35.0436 -106.6411 90° East 160 184 5,700 -566 Descending Albuquerque Center
Thu 04:12:34 PM 35.0450 -106.5956 88° East 156 180 5,300 -387 Descending Albuquerque Center
Thu 04:14:00 PM 35.0333 -106.6000 90° East  Level FlightAware Approximate

Login

Don't have an account? Register now (free) for customized features, flight alerts, and more!